createdAt,value
2023-01-12T00:01:34.025Z,6.56
2023-01-12T00:05:01.697Z,6.56
2023-01-12T00:08:29.422Z,6.61
2023-01-12T00:11:45.704Z,6.70
2023-01-12T00:15:02.020Z,6.68
2023-01-12T00:18:11.701Z,6.67
2023-01-12T00:21:02.487Z,6.60
2023-01-12T00:23:53.102Z,6.64
2023-01-12T00:27:18.020Z,6.63
2023-01-12T00:30:45.770Z,6.54
2023-01-12T00:33:54.466Z,6.46
2023-01-12T00:37:03.256Z,6.52
2023-01-12T00:40:18.675Z,6.45
2023-01-12T00:43:27.295Z,6.49
2023-01-12T00:46:55.178Z,6.55
2023-01-12T00:49:44.785Z,6.54
2023-01-12T00:52:53.581Z,6.57
2023-01-12T00:56:01.203Z,6.53
2023-01-12T00:59:28.955Z,6.45
2023-01-12T01:02:56.871Z,6.42
2023-01-12T01:06:24.447Z,6.39
2023-01-12T01:09:47.885Z,6.38
2023-01-12T01:13:15.526Z,6.35
2023-01-12T01:16:43.003Z,6.34
2023-01-12T01:20:10.634Z,6.32
2023-01-12T01:23:38.276Z,6.38
2023-01-12T01:27:06.094Z,6.34
2023-01-12T01:30:14.728Z,6.32
2023-01-12T01:33:42.506Z,6.31
2023-01-12T01:36:51.067Z,6.29
2023-01-12T01:40:18.518Z,6.34
2023-01-12T01:43:46.090Z,6.46
2023-01-12T01:46:42.268Z,6.51
2023-01-12T01:49:50.210Z,6.59
2023-01-12T01:53:17.890Z,6.59
2023-01-12T01:56:45.503Z,6.53
2023-01-12T02:00:13.485Z,6.51
2023-01-12T02:03:41.289Z,6.51
2023-01-12T02:07:08.891Z,6.54
2023-01-12T02:10:36.527Z,6.56
2023-01-12T02:14:04.296Z,6.48
2023-01-12T02:17:13.348Z,6.42
2023-01-12T02:20:17.319Z,6.33
2023-01-12T02:23:45.038Z,6.24
2023-01-12T02:26:37.440Z,6.24
2023-01-12T02:29:49.238Z,6.36
2023-01-12T02:32:37.551Z,6.36
2023-01-12T02:36:05.215Z,6.34
2023-01-12T02:39:02.871Z,6.35
2023-01-12T02:42:30.757Z,6.35
2023-01-12T02:45:58.504Z,6.38
2023-01-12T02:49:26.118Z,6.37
2023-01-12T02:52:53.744Z,6.14
2023-01-12T02:56:21.609Z,6.20
2023-01-12T02:59:49.258Z,6.05
2023-01-12T03:02:47.414Z,6.07
2023-01-12T03:05:25.662Z,6.07
2023-01-12T03:08:41.049Z,6.02
2023-01-12T03:12:10.955Z,6.01
2023-01-12T03:15:38.443Z,6.07
2023-01-12T03:19:06.110Z,6.08
2023-01-12T03:22:29.642Z,6.03
2023-01-12T03:25:57.386Z,5.96
2023-01-12T03:29:24.949Z,5.89
2023-01-12T03:32:52.794Z,5.81
2023-01-12T03:36:09.096Z,5.80
2023-01-12T03:39:36.832Z,5.81
2023-01-12T03:42:45.619Z,5.78
2023-01-12T03:45:55.044Z,5.81
2023-01-12T03:49:22.621Z,5.84
2023-01-12T03:52:46.169Z,5.86
2023-01-12T03:55:35.942Z,5.87
2023-01-12T03:58:40.984Z,5.88
2023-01-12T04:01:56.531Z,5.88
2023-01-12T04:05:04.102Z,5.92
2023-01-12T04:08:31.711Z,5.84
2023-01-12T04:11:59.391Z,5.93
2023-01-12T04:15:27.232Z,6.01
2023-01-12T04:18:16.472Z,5.93
2023-01-12T04:21:25.445Z,5.89
2023-01-12T04:24:34.069Z,5.90
2023-01-12T04:28:01.857Z,5.92
2023-01-12T04:31:29.535Z,5.92
2023-01-12T04:34:57.193Z,5.90
2023-01-12T04:38:13.207Z,5.89
2023-01-12T04:41:29.052Z,5.86
2023-01-12T04:44:38.982Z,5.83
2023-01-12T04:47:46.326Z,5.78
2023-01-12T04:51:13.905Z,5.83
2023-01-12T04:54:22.665Z,5.87
2023-01-12T04:57:50.412Z,5.92
2023-01-12T05:01:01.938Z,5.91
2023-01-12T05:04:17.275Z,5.89
2023-01-12T05:07:41.940Z,5.82
2023-01-12T05:10:50.665Z,5.69
2023-01-12T05:13:59.414Z,5.62
2023-01-12T05:17:27.076Z,5.56
2023-01-12T05:20:54.812Z,5.48
2023-01-12T05:24:19.513Z,5.38
2023-01-12T05:27:47.666Z,5.31
2023-01-12T05:30:59.337Z,5.24
2023-01-12T05:34:22.791Z,5.20
2023-01-12T05:37:50.383Z,5.07
2023-01-12T05:40:49.623Z,5.00
2023-01-12T05:44:17.133Z,4.97
2023-01-12T05:47:45.045Z,4.91
2023-01-12T05:51:09.957Z,4.67
2023-01-12T05:54:36.118Z,4.53
2023-01-12T05:57:44.025Z,4.52
2023-01-12T06:01:12.043Z,4.49
2023-01-12T06:04:24.492Z,4.47
2023-01-12T06:07:52.554Z,4.34
2023-01-12T06:11:02.195Z,4.20
2023-01-12T06:14:29.772Z,4.13
2023-01-12T06:17:36.679Z,4.00
2023-01-12T06:20:48.481Z,3.93
2023-01-12T06:24:16.098Z,3.81
2023-01-12T06:27:43.847Z,3.70
2023-01-12T06:31:11.428Z,3.69
2023-01-12T06:34:38.907Z,3.67
2023-01-12T06:37:47.913Z,3.68
2023-01-12T06:40:56.068Z,3.66
2023-01-12T06:44:23.758Z,3.66
2023-01-12T06:47:51.274Z,3.63
2023-01-12T06:51:18.777Z,3.65
2023-01-12T06:54:09.447Z,3.72
2023-01-12T06:57:24.939Z,3.77
2023-01-12T07:00:16.291Z,3.77
2023-01-12T07:03:24.949Z,3.86
2023-01-12T07:06:52.539Z,3.85
2023-01-12T07:10:20.338Z,3.91
2023-01-12T07:13:36.061Z,3.97
2023-01-12T07:17:03.610Z,3.91
2023-01-12T07:20:31.449Z,3.98
2023-01-12T07:23:46.601Z,4.05
2023-01-12T07:26:55.446Z,4.05
2023-01-12T07:30:03.869Z,4.04
2023-01-12T07:33:32.199Z,4.06
2023-01-12T07:36:59.979Z,4.14
2023-01-12T07:39:49.705Z,4.15
2023-01-12T07:43:17.917Z,4.19
2023-01-12T07:46:45.856Z,4.22
2023-01-12T07:49:17.290Z,4.22
2023-01-12T07:52:45.002Z,4.23
2023-01-12T07:55:54.448Z,4.29
2023-01-12T07:59:22.319Z,4.36
2023-01-12T08:02:50.949Z,4.40
2023-01-12T08:06:18.585Z,4.48
2023-01-12T08:09:46.229Z,4.58
2023-01-12T08:13:14.232Z,4.57
2023-01-12T08:16:41.979Z,4.65
2023-01-12T08:20:09.556Z,4.72
2023-01-12T08:23:37.365Z,4.85
2023-01-12T08:27:05.138Z,5.00
2023-01-12T08:30:13.687Z,5.18
2023-01-12T08:33:41.272Z,5.31
2023-01-12T08:37:08.897Z,5.33
2023-01-12T08:40:16.661Z,5.46
2023-01-12T08:43:25.492Z,5.59
2023-01-12T08:46:53.392Z,5.74
2023-01-12T08:50:21.297Z,5.90
2023-01-12T08:53:48.848Z,6.02
2023-01-12T08:56:58.523Z,6.23
2023-01-12T09:00:26.182Z,6.41
2023-01-12T09:03:34.222Z,6.58
2023-01-12T09:07:01.952Z,6.66
2023-01-12T09:10:30.139Z,6.67
2023-01-12T09:13:57.763Z,6.99
2023-01-12T09:17:06.599Z,7.07
2023-01-12T09:20:34.259Z,7.29
2023-01-12T09:24:02.140Z,7.45
2023-01-12T09:27:29.999Z,7.45
2023-01-12T09:30:38.739Z,7.52
2023-01-12T09:34:06.309Z,7.64
2023-01-12T09:37:14.997Z,7.81
2023-01-12T09:40:42.802Z,7.63
2023-01-12T09:43:51.508Z,7.61
2023-01-12T09:47:19.154Z,7.71
2023-01-12T09:50:28.015Z,7.66
2023-01-12T09:53:55.617Z,7.64
2023-01-12T09:57:29.201Z,7.71
2023-01-12T10:00:51.177Z,7.85
2023-01-12T10:04:18.678Z,7.86
2023-01-12T10:07:06.965Z,7.89
2023-01-12T10:10:15.724Z,7.92
2023-01-12T10:13:24.560Z,8.09
2023-01-12T10:16:33.199Z,8.10
2023-01-12T10:19:42.015Z,8.18
2023-01-12T10:23:11.355Z,8.06
2023-01-12T10:26:39.111Z,8.07
2023-01-12T10:29:48.158Z,8.14
2023-01-12T10:33:15.839Z,8.14
2023-01-12T10:36:24.295Z,8.29
2023-01-12T10:39:53.639Z,8.33
2023-01-12T10:43:21.400Z,8.26
2023-01-12T10:46:44.540Z,8.50
2023-01-12T10:50:12.578Z,8.52
2023-01-12T10:53:40.312Z,8.48
2023-01-12T10:56:48.617Z,8.54
2023-01-12T10:59:57.524Z,8.63
2023-01-12T11:03:25.344Z,8.79
2023-01-12T11:06:35.213Z,8.77
2023-01-12T11:09:43.785Z,8.97
2023-01-12T11:12:52.185Z,9.11
2023-01-12T11:16:19.818Z,9.29
2023-01-12T11:19:48.392Z,9.46
2023-01-12T11:22:58.204Z,9.59
2023-01-12T11:26:25.861Z,9.67
2023-01-12T11:29:35.662Z,9.70
2023-01-12T11:32:44.456Z,9.66
2023-01-12T11:35:52.472Z,9.59
2023-01-12T11:39:20.232Z,9.40
2023-01-12T11:42:48.092Z,9.42
2023-01-12T11:46:03.583Z,9.25
2023-01-12T11:49:11.974Z,8.98
2023-01-12T11:52:20.362Z,8.76
2023-01-12T11:55:48.216Z,8.47
2023-01-12T11:59:15.938Z,8.39
2023-01-12T12:02:44.531Z,8.23
2023-01-12T12:05:52.325Z,8.28
2023-01-12T12:09:19.883Z,8.24
2023-01-12T12:12:10.074Z,8.28
2023-01-12T12:15:37.889Z,8.25
2023-01-12T12:19:05.521Z,8.20
2023-01-12T12:22:15.216Z,8.24
2023-01-12T12:25:42.912Z,8.12
2023-01-12T12:29:10.677Z,8.17
2023-01-12T12:32:18.811Z,8.08
2023-01-12T12:35:46.271Z,8.05
2023-01-12T12:39:14.207Z,7.82
2023-01-12T12:42:22.300Z,7.68
2023-01-12T12:45:49.888Z,7.66
2023-01-12T12:49:17.451Z,7.57
2023-01-12T12:52:26.035Z,7.54
2023-01-12T12:55:14.525Z,7.51
2023-01-12T12:58:23.601Z,7.53
2023-01-12T13:01:31.812Z,7.54
2023-01-12T13:04:39.964Z,7.69
2023-01-12T13:08:07.639Z,7.73
2023-01-12T13:11:35.585Z,7.70
2023-01-12T13:15:03.844Z,7.78
2023-01-12T13:18:31.541Z,7.70
2023-01-12T13:21:59.241Z,7.76
2023-01-12T13:25:27.358Z,7.96
2023-01-12T13:28:54.968Z,8.29
2023-01-12T13:32:03.670Z,8.56
2023-01-12T13:35:31.262Z,8.80
2023-01-12T13:38:39.991Z,8.94
2023-01-12T13:42:09.064Z,8.88
2023-01-12T13:45:36.885Z,8.91
2023-01-12T13:48:47.232Z,9.15
2023-01-12T13:52:15.113Z,9.20
2023-01-12T13:55:43.356Z,9.24
2023-01-12T13:59:11.335Z,8.86
2023-01-12T14:02:00.885Z,8.68
2023-01-12T14:04:29.845Z,8.50
2023-01-12T14:07:58.039Z,8.30
2023-01-12T14:11:25.725Z,8.16
2023-01-12T14:14:53.818Z,8.12
2023-01-12T14:18:21.868Z,7.92
2023-01-12T14:21:30.368Z,7.69
2023-01-12T14:24:19.691Z,7.57
2023-01-12T14:27:28.536Z,7.50
2023-01-12T14:30:55.955Z,7.44
2023-01-12T14:34:23.888Z,7.38
2023-01-12T14:37:33.828Z,7.36
2023-01-12T14:41:01.853Z,7.28
2023-01-12T14:44:10.775Z,7.22
2023-01-12T14:47:40.079Z,7.20
2023-01-12T14:51:07.603Z,7.11
2023-01-12T14:54:35.287Z,7.05
2023-01-12T14:57:44.234Z,6.99
2023-01-12T15:01:12.377Z,6.96
2023-01-12T15:04:23.367Z,6.86
2023-01-12T15:07:49.249Z,6.80
2023-01-12T15:10:57.297Z,6.75
2023-01-12T15:14:25.016Z,6.71
2023-01-12T15:17:35.115Z,6.71
2023-01-12T15:21:03.261Z,6.68
2023-01-12T15:24:31.042Z,6.64
2023-01-12T15:27:59.048Z,6.54
2023-01-12T15:31:27.155Z,6.53
2023-01-12T15:34:54.645Z,6.49
2023-01-12T15:38:03.591Z,6.49
2023-01-12T15:41:31.354Z,6.53
2023-01-12T15:44:20.532Z,6.53
2023-01-12T15:47:48.469Z,6.52
2023-01-12T15:51:16.145Z,6.54
2023-01-12T15:54:43.973Z,6.59
2023-01-12T15:57:51.655Z,6.63
2023-01-12T16:01:19.454Z,6.71
2023-01-12T16:04:47.075Z,6.77
2023-01-12T16:08:14.735Z,6.76
2023-01-12T16:11:43.597Z,6.81
2023-01-12T16:15:11.147Z,6.80
2023-01-12T16:18:38.612Z,6.73
2023-01-12T16:21:47.208Z,6.74
2023-01-12T16:24:55.880Z,6.73
2023-01-12T16:28:04.126Z,6.73
2023-01-12T16:31:31.982Z,6.72
2023-01-12T16:34:59.607Z,6.69
2023-01-12T16:38:08.284Z,6.71
2023-01-12T16:41:36.154Z,6.81
2023-01-12T16:44:44.552Z,6.76
2023-01-12T16:47:53.091Z,6.81
2023-01-12T16:51:01.791Z,6.87
2023-01-12T16:54:29.541Z,6.91
2023-01-12T16:57:37.996Z,6.84
2023-01-12T17:01:05.537Z,6.75
2023-01-12T17:04:33.117Z,6.83
2023-01-12T17:07:48.858Z,6.83
2023-01-12T17:11:16.826Z,6.81
2023-01-12T17:13:45.441Z,6.82
2023-01-12T17:16:53.725Z,6.88
2023-01-12T17:20:21.686Z,6.90
2023-01-12T17:23:49.469Z,6.92
2023-01-12T17:27:17.400Z,6.93
2023-01-12T17:30:33.559Z,6.96
2023-01-12T17:33:42.720Z,7.00
2023-01-12T17:37:10.457Z,7.04
2023-01-12T17:40:38.217Z,7.04
2023-01-12T17:44:06.020Z,6.96
2023-01-12T17:47:00.128Z,6.94
2023-01-12T17:50:27.973Z,6.91
2023-01-12T17:53:55.756Z,6.94
2023-01-12T17:57:24.007Z,6.97
2023-01-12T18:00:52.426Z,6.91
2023-01-12T18:04:20.468Z,6.90
2023-01-12T18:07:48.286Z,6.78
2023-01-12T18:11:16.700Z,6.68
2023-01-12T18:14:28.769Z,6.65
2023-01-12T18:17:36.736Z,6.62
2023-01-12T18:21:04.750Z,6.52
2023-01-12T18:24:28.625Z,6.49
2023-01-12T18:27:56.450Z,6.46
2023-01-12T18:31:24.405Z,6.40
2023-01-12T18:34:52.801Z,6.39
2023-01-12T18:38:16.811Z,6.39
2023-01-12T18:41:44.590Z,6.32
2023-01-12T18:44:53.391Z,6.29
2023-01-12T18:48:02.446Z,6.17
2023-01-12T18:51:30.358Z,6.14
2023-01-12T18:54:46.458Z,6.11
2023-01-12T18:58:14.339Z,6.06
2023-01-12T19:01:26.092Z,5.99
2023-01-12T19:04:53.832Z,6.01
2023-01-12T19:08:21.519Z,5.88
2023-01-12T19:11:49.305Z,5.85
2023-01-12T19:14:58.517Z,5.79
2023-01-12T19:18:26.423Z,5.81
2023-01-12T19:21:54.251Z,5.68
2023-01-12T19:25:22.016Z,5.59
2023-01-12T19:28:49.854Z,5.56
2023-01-12T19:32:13.670Z,5.52
2023-01-12T19:35:41.843Z,5.48
2023-01-12T19:39:09.471Z,5.48
2023-01-12T19:42:37.518Z,5.44
2023-01-12T19:45:46.220Z,5.44
2023-01-12T19:49:13.936Z,5.50
2023-01-12T19:52:41.753Z,5.57
2023-01-12T19:56:09.937Z,5.62
2023-01-12T19:59:37.788Z,5.72
2023-01-12T20:03:05.551Z,5.86
2023-01-12T20:06:33.373Z,6.00
2023-01-12T20:10:01.117Z,6.09
2023-01-12T20:13:29.258Z,6.07
2023-01-12T20:16:56.969Z,6.19
2023-01-12T20:20:24.746Z,6.30
2023-01-12T20:23:52.591Z,6.35
2023-01-12T20:27:20.466Z,6.40
2023-01-12T20:30:48.272Z,6.33
2023-01-12T20:34:16.377Z,6.29
2023-01-12T20:37:25.209Z,6.27
2023-01-12T20:40:52.970Z,6.18
2023-01-12T20:44:20.892Z,6.16
2023-01-12T20:47:29.641Z,6.11
2023-01-12T20:50:57.398Z,6.08
2023-01-12T20:54:25.357Z,6.15
2023-01-12T20:57:16.402Z,6.14
2023-01-12T21:00:44.048Z,6.00
2023-01-12T21:04:11.606Z,5.90
2023-01-12T21:07:21.904Z,5.96
2023-01-12T21:09:59.401Z,5.98
2023-01-12T21:13:08.031Z,6.00
2023-01-12T21:16:35.939Z,6.04
2023-01-12T21:20:03.812Z,6.20
2023-01-12T21:23:13.486Z,6.16
2023-01-12T21:26:41.179Z,6.12
2023-01-12T21:29:30.981Z,6.14
2023-01-12T21:33:00.229Z,6.05
2023-01-12T21:36:28.214Z,5.98
2023-01-12T21:39:16.898Z,6.00
2023-01-12T21:42:26.200Z,5.99
2023-01-12T21:45:54.778Z,5.93
2023-01-12T21:49:22.429Z,5.91
2023-01-12T21:52:11.102Z,5.90
2023-01-12T21:55:36.373Z,5.93
2023-01-12T21:58:26.177Z,5.94
2023-01-12T22:01:54.260Z,5.92
2023-01-12T22:05:21.831Z,5.93
2023-01-12T22:08:49.423Z,5.84
2023-01-12T22:11:59.289Z,5.80
2023-01-12T22:15:27.003Z,5.79
2023-01-12T22:18:54.752Z,5.74
2023-01-12T22:22:22.523Z,5.74
2023-01-12T22:25:30.994Z,5.67
2023-01-12T22:28:48.306Z,5.63
2023-01-12T22:32:15.962Z,5.53
2023-01-12T22:35:44.181Z,5.55
2023-01-12T22:39:13.405Z,5.47
2023-01-12T22:42:41.287Z,5.38
2023-01-12T22:45:50.355Z,5.30
2023-01-12T22:49:27.649Z,5.34
2023-01-12T22:52:37.721Z,5.28
2023-01-12T22:56:05.657Z,5.35
2023-01-12T22:59:33.294Z,5.39
2023-01-12T23:03:02.386Z,5.47
2023-01-12T23:06:29.569Z,5.54
2023-01-12T23:09:57.449Z,5.66
2023-01-12T23:13:25.506Z,5.68
2023-01-12T23:16:33.453Z,5.69
2023-01-12T23:20:01.114Z,5.70
2023-01-12T23:23:29.267Z,5.63
2023-01-12T23:26:58.971Z,5.61
2023-01-12T23:30:26.590Z,5.59
2023-01-12T23:33:54.332Z,5.59
2023-01-12T23:37:22.115Z,5.46
2023-01-12T23:40:49.876Z,5.54
2023-01-12T23:44:17.891Z,5.52
2023-01-12T23:47:45.755Z,5.51
2023-01-12T23:50:34.421Z,5.54
2023-01-12T23:54:02.302Z,5.58
2023-01-12T23:57:30.302Z,5.61
